Time;durP1;ratioP1;P1;durP2;ratioP2;P2;SDS_P1;SDS_P2;PMS_P1;PMS_P2;Temp;Humidity;BMP_temperature;BMP_pressure;BME280_temperature;BME280_humidity;BME280_pressure;Samples;Min_cycle;Max_cycle;Signal;HPM_P1;HPM_P2
2021/12/30 00:01:36;;;;;;;16.88;4.28;;;11.20;99.90;;;;;;4955709;28;20485;-58
2021/12/30 00:04:02;;;;;;;26.98;5.55;;;11.20;99.90;;;;;;4960233;28;20043;-58
2021/12/30 00:06:29;;;;;;;27.67;5.88;;;11.20;99.90;;;;;;4960969;28;20031;-56
2021/12/30 00:08:56;;;;;;;27.58;4.60;;;11.20;99.90;;;;;;4957799;28;20397;-58
2021/12/30 00:11:22;;;;;;;26.45;5.13;;;11.30;99.90;;;;;;4967061;28;20031;-52
2021/12/30 00:13:48;;;;;;;23.77;5.22;;;11.30;99.90;;;;;;4964401;28;20026;-58
2021/12/30 00:16:16;;;;;;;21.98;4.78;;;11.20;99.90;;;;;;4965593;28;20026;-57
2021/12/30 00:18:42;;;;;;;29.58;4.80;;;11.20;99.90;;;;;;4970816;28;20042;-54
2021/12/30 00:21:08;;;;;;;30.65;4.97;;;11.20;99.90;;;;;;4972280;28;20035;-57
2021/12/30 00:23:34;;;;;;;25.95;4.57;;;11.10;99.90;;;;;;4971797;28;20503;-57
2021/12/30 00:26:00;;;;;;;22.05;5.05;;;11.10;99.90;;;;;;4971424;28;20046;-56
2021/12/30 00:28:28;;;;;;;23.10;5.38;;;11.10;99.90;;;;;;4968375;28;20030;-57
2021/12/30 00:30:54;;;;;;;29.05;4.15;;;11.10;99.90;;;;;;4970710;28;20027;-57
2021/12/30 00:33:21;;;;;;;27.85;4.95;;;11.10;99.90;;;;;;4964791;28;20464;-57
2021/12/30 00:35:47;;;;;;;30.67;4.68;;;11.20;99.90;;;;;;4982805;28;20031;-55
2021/12/30 00:38:13;;;;;;;34.33;8.40;;;11.10;99.90;;;;;;4971285;28;20059;-57
2021/12/30 00:40:39;;;;;;;25.50;5.38;;;11.10;99.90;;;;;;4971566;28;20042;-57
2021/12/30 00:43:06;;;;;;;29.13;5.38;;;11.10;99.90;;;;;;4970858;28;20468;-57
2021/12/30 00:45:33;;;;;;;30.00;5.65;;;11.10;99.90;;;;;;4984560;28;20093;-57
2021/12/30 00:47:59;;;;;;;32.28;6.22;;;11.10;99.90;;;;;;4982900;28;20496;-56
2021/12/30 00:50:26;;;;;;;28.33;4.95;;;11.10;99.90;;;;;;4970463;28;20038;-56
2021/12/30 00:52:53;;;;;;;20.13;5.22;;;11.00;99.90;;;;;;4970903;28;20495;-57
2021/12/30 00:55:19;;;;;;;34.42;5.72;;;11.00;99.90;;;;;;4973533;28;20035;-52
2021/12/30 00:57:45;;;;;;;32.17;5.45;;;11.00;99.90;;;;;;4970979;28;20082;-57
2021/12/30 01:00:14;;;;;;;32.55;5.47;;;11.00;99.90;;;;;;4971195;28;20103;-54
2021/12/30 01:02:41;;;;;;;26.98;5.93;;;11.00;99.90;;;;;;4970993;28;20031;-58
2021/12/30 01:05:08;;;;;;;27.27;5.40;;;11.10;99.90;;;;;;4971339;28;20401;-56
2021/12/30 01:07:34;;;;;;;29.40;5.70;;;11.10;99.90;;;;;;4981976;28;20445;-55
2021/12/30 01:10:00;;;;;;;31.40;7.07;;;11.10;99.90;;;;;;4980933;28;20109;-56
2021/12/30 01:12:27;;;;;;;29.98;5.20;;;11.10;99.90;;;;;;4970775;28;20030;-58
2021/12/30 01:14:53;;;;;;;28.95;5.68;;;11.10;99.90;;;;;;4971779;28;20078;-56
2021/12/30 01:17:42;;;;;;;28.10;5.00;;;11.10;99.90;;;;;;4974495;28;20043;-57
2021/12/30 01:20:05;;;;;;;29.52;5.82;;;11.10;99.90;;;;;;4979256;28;20400;-56
2021/12/30 01:22:33;;;;;;;24.50;6.43;;;11.00;99.90;;;;;;4974787;28;20093;-58
2021/12/30 01:25:00;;;;;;;24.70;5.53;;;11.10;99.90;;;;;;4973777;28;20039;-55
2021/12/30 01:27:25;;;;;;;35.88;6.28;;;11.10;99.90;;;;;;4974465;28;20054;-57
2021/12/30 01:29:51;;;;;;;30.83;5.82;;;11.00;99.90;;;;;;4973895;28;20073;-57
2021/12/30 01:32:17;;;;;;;36.67;6.80;;;11.00;99.90;;;;;;4974717;28;20034;-58
2021/12/30 01:34:43;;;;;;;33.97;7.10;;;11.00;99.90;;;;;;4971882;28;20046;-56
2021/12/30 01:37:09;;;;;;;33.15;6.40;;;11.00;99.90;;;;;;4971049;28;20027;-55
2021/12/30 01:39:37;;;;;;;31.27;7.20;;;11.00;99.90;;;;;;4967807;28;20038;-56
2021/12/30 01:42:05;;;;;;;35.17;6.13;;;10.90;99.90;;;;;;4970863;28;20110;-57
2021/12/30 01:44:33;;;;;;;32.00;7.30;;;10.90;99.90;;;;;;4973695;28;20027;-57
2021/12/30 01:47:01;;;;;;;30.58;6.22;;;10.90;99.90;;;;;;4973698;28;20045;-50
2021/12/30 01:49:27;;;;;;;28.20;5.90;;;10.90;99.90;;;;;;4958928;28;20027;-57
2021/12/30 01:51:53;;;;;;;25.88;5.30;;;10.80;99.90;;;;;;4977115;28;20061;-58
2021/12/30 01:54:21;;;;;;;23.48;5.25;;;10.80;99.90;;;;;;4973357;28;20031;-55
2021/12/30 01:56:49;;;;;;;29.27;5.25;;;10.80;99.90;;;;;;4974111;28;20027;-58
2021/12/30 01:59:15;;;;;;;26.00;6.22;;;10.80;99.90;;;;;;4973192;28;20416;-54
2021/12/30 02:01:41;;;;;;;33.58;4.97;;;10.80;99.90;;;;;;4973359;28;20026;-56
2021/12/30 02:04:06;;;;;;;19.00;5.05;;;10.80;99.90;;;;;;4972540;28;20023;-57
2021/12/30 02:06:32;;;;;;;27.95;5.43;;;10.70;99.90;;;;;;4973445;28;20408;-57
2021/12/30 02:09:00;;;;;;;25.15;5.40;;;10.80;99.90;;;;;;4973653;28;20030;-57
2021/12/30 02:11:26;;;;;;;29.45;6.07;;;10.70;99.90;;;;;;4973247;28;20552;-56
2021/12/30 02:13:53;;;;;;;25.25;5.50;;;10.70;99.90;;;;;;4973090;28;20114;-57
2021/12/30 02:16:21;;;;;;;27.50;5.90;;;10.60;99.90;;;;;;4973527;28;20053;-56
2021/12/30 02:18:47;;;;;;;25.70;4.80;;;10.70;99.90;;;;;;4972780;28;20061;-57
2021/12/30 02:21:13;;;;;;;28.05;5.25;;;10.70;99.90;;;;;;4973131;28;20110;-57
2021/12/30 02:23:39;;;;;;;22.25;4.63;;;10.70;99.90;;;;;;4964735;28;20122;-56
2021/12/30 02:26:16;;;;;;;22.08;5.00;;;10.70;99.90;;;;;;4964026;28;20031;-57
2021/12/30 02:28:42;;;;;;;22.73;5.40;;;10.70;99.90;;;;;;4961401;28;20422;-57
2021/12/30 02:31:15;;;;;;;20.58;4.40;;;10.70;99.90;;;;;;4963218;28;20048;-58
2021/12/30 02:33:42;;;;;;;26.65;5.88;;;10.60;99.90;;;;;;4962999;28;20042;-58
2021/12/30 02:36:08;;;;;;;21.58;4.70;;;10.60;99.90;;;;;;4962665;28;20194;-55
2021/12/30 02:38:35;;;;;;;24.15;5.05;;;10.60;99.90;;;;;;4964239;28;20477;-53
2021/12/30 02:41:02;;;;;;;26.80;5.25;;;10.60;99.90;;;;;;4962167;28;20473;-50
2021/12/30 02:43:31;;;;;;;34.13;7.30;;;10.50;99.90;;;;;;4964307;28;20019;-56
2021/12/30 02:45:58;;;;;;;27.98;5.18;;;10.50;99.90;;;;;;4965032;28;20023;-54
2021/12/30 02:48:28;;;;;;;30.92;5.63;;;10.50;99.90;;;;;;4965294;28;20034;-55
2021/12/30 02:50:57;;;;;;;23.08;4.65;;;10.50;99.90;;;;;;4957803;28;20030;-57
2021/12/30 02:53:24;;;;;;;20.13;4.53;;;10.50;99.90;;;;;;4961366;28;20126;-56
2021/12/30 02:55:51;;;;;;;28.92;5.63;;;10.50;99.90;;;;;;4962497;28;20041;-56
2021/12/30 02:58:16;;;;;;;32.75;5.18;;;10.50;99.90;;;;;;4964698;28;20055;-56
2021/12/30 03:00:44;;;;;;;34.08;4.97;;;10.50;99.90;;;;;;4960569;28;20470;-57
2021/12/30 03:03:17;;;;;;;26.38;5.43;;;10.50;99.90;;;;;;4958159;28;20105;-55
2021/12/30 03:05:43;;;;;;;23.73;4.88;;;10.50;99.90;;;;;;4964512;28;20452;-53
2021/12/30 03:08:08;;;;;;;20.48;4.85;;;10.50;99.90;;;;;;4971326;28;20031;-55
2021/12/30 03:10:34;;;;;;;29.10;5.53;;;10.50;99.90;;;;;;4971390;28;20034;-58
2021/12/30 03:13:08;;;;;;;24.83;5.03;;;10.50;99.90;;;;;;4971407;28;20730;-54
2021/12/30 03:15:35;;;;;;;37.20;4.78;;;10.50;99.90;;;;;;4972354;28;20026;-56
2021/12/30 03:18:01;;;;;;;27.08;5.20;;;10.50;99.90;;;;;;4972953;28;20030;-58
2021/12/30 03:20:27;;;;;;;22.65;4.88;;;10.50;99.90;;;;;;4972710;28;20027;-56
2021/12/30 03:22:52;;;;;;;23.63;4.63;;;10.60;99.90;;;;;;4971412;28;20101;-57
2021/12/30 03:25:18;;;;;;;25.77;5.93;;;10.60;99.90;;;;;;4968521;28;20500;-56
2021/12/30 03:27:44;;;;;;;25.10;4.82;;;10.60;99.90;;;;;;4970482;28;20476;-58
2021/12/30 03:30:14;;;;;;;12.18;4.22;;;10.60;99.90;;;;;;4960786;28;20116;-59
2021/12/30 03:32:40;;;;;;;26.08;4.65;;;10.60;99.90;;;;;;4971320;28;20039;-56
2021/12/30 03:35:06;;;;;;;19.05;4.63;;;10.50;99.90;;;;;;4973441;28;20022;-56
2021/12/30 03:37:32;;;;;;;17.00;4.90;;;10.50;99.90;;;;;;4971260;28;20034;-57
2021/12/30 03:39:58;;;;;;;32.85;6.70;;;10.60;99.90;;;;;;4971869;28;20088;-57
2021/12/30 03:42:23;;;;;;;29.65;5.38;;;10.50;99.90;;;;;;4973211;28;20594;-57
2021/12/30 03:44:49;;;;;;;23.20;5.47;;;10.50;99.90;;;;;;4970147;28;20019;-57
2021/12/30 03:47:18;;;;;;;32.83;6.35;;;10.50;99.90;;;;;;4955337;28;20037;-57
2021/12/30 03:49:46;;;;;;;26.63;5.85;;;10.50;99.90;;;;;;4971664;28;20039;-57
2021/12/30 03:52:15;;;;;;;30.60;6.40;;;10.50;99.90;;;;;;4970823;28;20035;-56
2021/12/30 03:54:42;;;;;;;45.08;6.22;;;10.50;99.90;;;;;;4973227;28;20033;-56
2021/12/30 03:57:08;;;;;;;38.63;6.25;;;10.50;99.90;;;;;;4970217;28;20045;-58
2021/12/30 03:59:34;;;;;;;20.10;4.70;;;10.50;99.90;;;;;;4971121;28;20018;-56
2021/12/30 04:01:59;;;;;;;23.45;5.40;;;10.50;99.90;;;;;;4971568;28;20038;-58
2021/12/30 04:04:25;;;;;;;30.92;5.85;;;10.50;99.90;;;;;;4968632;28;20038;-56
2021/12/30 04:06:50;;;;;;;29.23;6.28;;;10.50;99.90;;;;;;4971588;28;20031;-56
2021/12/30 04:09:16;;;;;;;28.58;5.63;;;10.50;99.90;;;;;;4973042;28;20042;-56
2021/12/30 04:11:42;;;;;;;21.55;6.00;;;10.50;99.90;;;;;;4969486;28;20110;-54
2021/12/30 04:14:07;;;;;;;28.65;6.03;;;10.50;99.90;;;;;;4970694;28;20015;-53
2021/12/30 04:16:34;;;;;;;20.83;6.15;;;10.60;99.90;;;;;;4971420;28;20078;-57
2021/12/30 04:19:00;;;;;;;18.77;5.45;;;10.60;99.90;;;;;;4986787;28;20492;-53
2021/12/30 04:21:26;;;;;;;20.67;6.20;;;10.50;99.90;;;;;;4956094;28;20077;-55
2021/12/30 04:23:51;;;;;;;36.05;6.88;;;10.50;99.90;;;;;;4951218;28;20450;-54
2021/12/30 04:26:17;;;;;;;29.50;6.80;;;10.60;99.90;;;;;;4970418;28;20529;-58
2021/12/30 04:28:44;;;;;;;20.40;6.43;;;10.50;99.90;;;;;;4971475;28;20039;-56
2021/12/30 04:31:10;;;;;;;27.27;6.93;;;10.50;99.90;;;;;;4981637;28;20043;-53
2021/12/30 04:33:35;;;;;;;19.45;5.88;;;10.60;99.90;;;;;;4970810;28;20019;-56
2021/12/30 04:36:01;;;;;;;17.00;5.13;;;10.60;99.90;;;;;;4970903;28;20041;-58
2021/12/30 04:38:29;;;;;;;13.25;4.40;;;10.60;99.90;;;;;;4969255;28;20022;-58
2021/12/30 04:40:55;;;;;;;16.48;5.35;;;10.60;99.90;;;;;;4969319;28;20023;-56
2021/12/30 04:43:21;;;;;;;9.30;4.40;;;10.60;99.90;;;;;;4973502;28;20436;-58
2021/12/30 04:45:47;;;;;;;9.93;3.90;;;10.60;99.90;;;;;;4968951;28;20031;-57
2021/12/30 04:48:14;;;;;;;10.68;4.00;;;10.60;99.90;;;;;;4964590;28;20030;-57
2021/12/30 04:50:40;;;;;;;7.72;3.70;;;10.60;99.90;;;;;;4971897;28;20046;-55
2021/12/30 04:53:05;;;;;;;9.50;4.50;;;10.60;99.90;;;;;;4969185;28;20066;-53
2021/12/30 04:55:31;;;;;;;5.32;3.55;;;10.70;99.90;;;;;;4973531;28;20038;-57
2021/12/30 04:57:57;;;;;;;10.93;4.03;;;10.70;99.90;;;;;;4974927;28;20038;-49
2021/12/30 05:00:23;;;;;;;8.40;3.38;;;10.70;99.90;;;;;;4974774;28;20050;-55
2021/12/30 05:05:35;;;;;;;;;;;10.70;99.90;;;;;;4973364;28;20093;-57
2021/12/30 05:08:00;;;;;;;10.30;3.03;;;10.70;99.90;;;;;;4968108;28;19910;-56
2021/12/30 05:10:26;;;;;;;37.13;4.80;;;10.70;99.90;;;;;;4974274;28;20109;-56
2021/12/30 05:12:52;;;;;;;36.95;4.35;;;10.80;99.90;;;;;;4970999;28;20350;-56
2021/12/30 05:15:17;;;;;;;10.93;4.20;;;10.80;99.90;;;;;;4972204;28;20058;-57
2021/12/30 05:17:43;;;;;;;5.20;3.28;;;10.80;99.90;;;;;;4974437;28;20031;-57
2021/12/30 05:20:10;;;;;;;20.40;4.32;;;10.80;99.90;;;;;;4970972;28;20117;-55
2021/12/30 05:22:35;;;;;;;27.95;6.03;;;10.80;99.90;;;;;;4972417;28;20039;-55
2021/12/30 05:25:02;;;;;;;32.55;5.18;;;10.80;99.90;;;;;;4968916;28;20385;-57
2021/12/30 05:27:28;;;;;;;8.90;4.25;;;10.90;99.90;;;;;;4972148;28;20467;-57
2021/12/30 05:29:53;;;;;;;17.75;5.38;;;10.90;99.90;;;;;;4973509;28;20066;-58
2021/12/30 05:32:19;;;;;;;32.17;7.03;;;10.80;99.90;;;;;;4972418;28;20123;-57
2021/12/30 05:34:44;;;;;;;37.15;6.53;;;10.90;99.90;;;;;;4972877;28;20060;-57
2021/12/30 05:37:11;;;;;;;17.90;6.60;;;10.90;99.90;;;;;;4973099;28;20019;-55
2021/12/30 05:39:40;;;;;;;16.60;7.43;;;10.90;99.90;;;;;;4970092;28;20118;-58
2021/12/30 05:42:06;;;;;;;12.13;6.90;;;11.00;99.90;;;;;;4972248;28;20033;-57
2021/12/30 05:44:31;;;;;;;17.08;7.03;;;11.00;99.90;;;;;;4972604;28;20026;-57
2021/12/30 05:46:57;;;;;;;15.85;6.68;;;11.00;99.90;;;;;;4972762;28;20465;-55
2021/12/30 05:49:23;;;;;;;15.15;6.18;;;11.00;99.90;;;;;;4970695;28;20473;-51
2021/12/30 05:51:49;;;;;;;16.35;6.70;;;11.00;99.90;;;;;;4972754;28;20038;-57
2021/12/30 05:54:14;;;;;;;16.65;6.38;;;11.00;99.90;;;;;;4971713;28;20114;-58
2021/12/30 05:56:40;;;;;;;12.27;5.40;;;11.10;99.90;;;;;;4968958;28;20073;-57
2021/12/30 05:59:05;;;;;;;15.35;5.68;;;11.10;99.90;;;;;;4973984;28;20030;-57
2021/12/30 06:01:31;;;;;;;10.27;4.90;;;11.10;99.90;;;;;;4973636;28;20034;-58
2021/12/30 06:03:56;;;;;;;13.20;5.22;;;11.10;99.90;;;;;;4969931;28;20129;-56
2021/12/30 06:06:24;;;;;;;10.55;4.82;;;11.10;99.90;;;;;;4972362;28;20038;-57
2021/12/30 06:08:50;;;;;;;13.07;4.70;;;11.10;99.90;;;;;;4970825;28;20038;-58
2021/12/30 06:11:16;;;;;;;12.63;5.07;;;11.10;99.90;;;;;;4972178;28;20031;-55
2021/12/30 06:13:42;;;;;;;9.88;5.07;;;11.10;99.90;;;;;;4964553;28;20156;-54
2021/12/30 06:16:08;;;;;;;13.35;3.80;;;11.10;99.90;;;;;;4971482;28;20035;-57
2021/12/30 06:18:33;;;;;;;10.73;4.35;;;11.20;99.90;;;;;;4971783;28;20081;-57
2021/12/30 06:20:59;;;;;;;14.60;4.93;;;11.20;99.90;;;;;;4969345;28;20127;-57
2021/12/30 06:23:24;;;;;;;16.70;5.88;;;11.20;99.90;;;;;;4971448;28;20019;-51
2021/12/30 06:25:50;;;;;;;39.28;14.10;;;11.10;99.90;;;;;;4973308;28;20129;-55
2021/12/30 06:28:15;;;;;;;21.08;9.25;;;11.20;99.90;;;;;;4968425;28;20469;-57
2021/12/30 06:30:41;;;;;;;51.03;20.08;;;11.10;99.90;;;;;;4970730;28;20026;-58
2021/12/30 06:33:07;;;;;;;36.13;18.75;;;11.20;99.90;;;;;;4971926;28;20034;-53
2021/12/30 06:35:34;;;;;;;21.25;12.60;;;11.20;99.90;;;;;;4970184;28;20433;-54
2021/12/30 06:38:01;;;;;;;63.30;22.17;;;11.10;99.90;;;;;;4971348;28;20023;-57
2021/12/30 06:40:27;;;;;;;35.30;16.20;;;11.10;99.90;;;;;;4973303;28;20098;-56
2021/12/30 06:42:53;;;;;;;69.35;44.67;;;11.10;99.90;;;;;;4970754;28;20101;-53
2021/12/30 06:45:19;;;;;;;17.30;11.20;;;11.20;99.90;;;;;;4971227;28;20130;-56
2021/12/30 06:47:45;;;;;;;34.65;21.77;;;11.20;99.90;;;;;;4969790;28;20038;-57
2021/12/30 06:50:13;;;;;;;28.95;21.08;;;11.20;99.90;;;;;;4964314;28;20039;-57
2021/12/30 06:52:40;;;;;;;11.55;7.90;;;11.30;99.90;;;;;;4970019;28;20038;-58
2021/12/30 06:55:07;;;;;;;15.13;7.00;;;11.30;99.90;;;;;;4971214;28;20592;-54
2021/12/30 06:57:34;;;;;;;11.20;4.03;;;11.30;99.90;;;;;;4969815;28;20736;-57
2021/12/30 06:59:59;;;;;;;17.95;11.18;;;11.30;99.90;;;;;;4971892;28;20051;-54
2021/12/30 07:02:25;;;;;;;10.35;5.30;;;11.30;99.90;;;;;;4970767;28;20063;-56
2021/12/30 07:04:51;;;;;;;7.72;3.58;;;11.30;99.90;;;;;;4971030;28;20547;-57
2021/12/30 07:07:16;;;;;;;15.57;4.25;;;11.30;99.90;;;;;;4969995;28;20035;-57
2021/12/30 07:09:42;;;;;;;11.57;3.88;;;11.30;99.90;;;;;;4970924;28;20393;-55
2021/12/30 07:12:08;;;;;;;15.02;4.25;;;11.30;99.90;;;;;;4971762;28;20035;-55
2021/12/30 07:14:34;;;;;;;12.77;3.85;;;11.30;99.90;;;;;;4971575;28;20031;-56
2021/12/30 07:16:59;;;;;;;16.15;5.57;;;11.30;99.90;;;;;;4972512;28;20025;-57
2021/12/30 07:19:25;;;;;;;14.75;7.38;;;11.30;99.90;;;;;;4966539;28;20058;-50
2021/12/30 07:21:50;;;;;;;7.32;4.60;;;11.30;99.90;;;;;;4971904;28;20432;-57
2021/12/30 07:24:17;;;;;;;28.67;13.45;;;11.30;99.90;;;;;;4968435;28;20035;-57
2021/12/30 07:26:43;;;;;;;21.00;10.00;;;11.40;99.90;;;;;;4968941;28;20034;-55
2021/12/30 07:29:08;;;;;;;23.92;11.23;;;11.50;99.90;;;;;;4971731;28;20034;-54
2021/12/30 07:31:34;;;;;;;14.70;9.60;;;11.50;99.90;;;;;;4969929;28;20477;-55
2021/12/30 07:34:00;;;;;;;17.98;9.77;;;11.60;99.90;;;;;;4969996;28;20030;-58
2021/12/30 07:36:26;;;;;;;29.10;15.73;;;11.70;99.90;;;;;;4970886;28;20497;-57
2021/12/30 07:38:51;;;;;;;26.13;12.80;;;11.80;99.90;;;;;;4970654;28;20473;-56
2021/12/30 07:41:17;;;;;;;13.27;8.27;;;11.90;99.90;;;;;;4970162;28;20046;-57
2021/12/30 07:43:43;;;;;;;15.05;6.68;;;12.00;99.90;;;;;;4968724;28;20045;-58
2021/12/30 07:46:09;;;;;;;10.27;5.40;;;12.20;99.90;;;;;;4970508;28;20086;-56
2021/12/30 07:48:38;;;;;;;41.75;22.98;;;12.30;99.90;;;;;;4970576;28;20031;-55
2021/12/30 07:51:04;;;;;;;15.43;9.43;;;12.30;99.90;;;;;;4970808;28;20035;-56
2021/12/30 07:53:30;;;;;;;8.48;4.13;;;12.30;99.90;;;;;;4969244;28;20396;-57
2021/12/30 07:55:56;;;;;;;10.13;3.40;;;12.30;99.90;;;;;;4969767;28;20054;-56
2021/12/30 07:58:22;;;;;;;14.32;7.63;;;12.20;99.90;;;;;;4968637;28;20043;-56
2021/12/30 08:00:47;;;;;;;5.03;3.50;;;12.10;99.90;;;;;;4942010;28;20054;-58
2021/12/30 08:03:13;;;;;;;16.08;8.93;;;12.10;99.90;;;;;;4969735;28;20027;-53
2021/12/30 08:05:39;;;;;;;6.40;3.00;;;12.10;99.90;;;;;;4970758;28;20030;-58
2021/12/30 08:08:04;;;;;;;8.98;3.83;;;12.10;99.90;;;;;;4968466;28;20508;-56
2021/12/30 08:10:30;;;;;;;13.27;9.23;;;12.10;99.90;;;;;;4970076;28;20111;-54
2021/12/30 08:12:56;;;;;;;9.98;6.70;;;12.20;99.90;;;;;;4967557;28;20041;-56
2021/12/30 08:15:23;;;;;;;16.02;11.82;;;12.20;99.90;;;;;;4968879;28;20035;-56
2021/12/30 08:17:49;;;;;;;11.80;7.50;;;12.30;99.90;;;;;;4967788;28;20057;-57
2021/12/30 08:20:17;;;;;;;34.55;21.40;;;12.40;99.90;;;;;;4967627;28;20019;-57
2021/12/30 08:22:43;;;;;;;36.13;19.60;;;12.60;99.90;;;;;;4968758;28;20045;-55
2021/12/30 08:25:11;;;;;;;17.00;9.02;;;12.70;99.90;;;;;;4971514;28;20046;-57
2021/12/30 08:27:37;;;;;;;17.60;10.68;;;12.70;99.90;;;;;;4972906;28;20030;-58
2021/12/30 08:30:06;;;;;;;17.30;9.13;;;12.70;99.90;;;;;;4972454;28;20045;-56
2021/12/30 08:32:32;;;;;;;15.23;9.23;;;12.80;99.90;;;;;;4972204;28;20485;-57
2021/12/30 08:34:58;;;;;;;15.05;9.30;;;12.80;99.90;;;;;;4968360;28;20037;-58
2021/12/30 08:37:24;;;;;;;4.97;3.40;;;12.90;99.90;;;;;;4973151;28;20109;-49
2021/12/30 08:39:49;;;;;;;6.65;3.33;;;12.90;99.90;;;;;;4971422;28;20023;-57
2021/12/30 08:42:29;;;;;;;2.63;1.42;;;13.00;99.90;;;;;;4969513;28;20520;-57
2021/12/30 08:44:57;;;;;;;1.98;1.38;;;13.00;99.90;;;;;;4969555;28;21188;-57
2021/12/30 08:47:24;;;;;;;4.97;1.90;;;13.10;99.90;;;;;;4971260;28;20035;-55
2021/12/30 08:49:50;;;;;;;3.10;2.13;;;13.10;99.90;;;;;;4969776;28;20400;-56
2021/12/30 08:52:18;;;;;;;4.05;1.90;;;13.20;99.90;;;;;;4987437;28;20109;-57
2021/12/30 08:54:45;;;;;;;3.00;1.80;;;13.30;99.90;;;;;;4971493;28;20034;-56
2021/12/30 08:57:11;;;;;;;5.22;2.42;;;13.30;99.90;;;;;;4973262;28;20027;-54
2021/12/30 08:59:37;;;;;;;2.15;1.20;;;13.30;99.90;;;;;;4971688;28;20027;-57
2021/12/30 09:02:06;;;;;;;3.15;1.30;;;13.30;99.90;;;;;;4958636;28;20491;-57
2021/12/30 09:04:32;;;;;;;1.50;1.10;;;13.40;99.90;;;;;;4970509;28;20030;-58
2021/12/30 09:06:58;;;;;;;1.52;1.40;;;13.40;99.90;;;;;;4972677;28;20031;-57
2021/12/30 09:09:24;;;;;;;2.35;1.40;;;13.40;99.90;;;;;;4970423;28;20114;-56
2021/12/30 09:11:49;;;;;;;9.85;5.55;;;13.30;99.90;;;;;;4972822;28;20077;-55
2021/12/30 09:14:15;;;;;;;24.85;13.30;;;13.40;99.90;;;;;;4967962;28;20030;-56
2021/12/30 09:16:41;;;;;;;4.70;2.75;;;13.30;99.90;;;;;;4972345;28;20046;-58
2021/12/30 09:19:07;;;;;;;21.00;10.23;;;13.30;99.90;;;;;;4972334;28;20023;-58
2021/12/30 09:21:40;;;;;;;9.07;4.50;;;13.30;99.90;;;;;;4972106;28;20508;-56
2021/12/30 09:24:08;;;;;;;3.70;1.98;;;13.20;99.90;;;;;;4970632;28;20400;-57
2021/12/30 09:26:34;;;;;;;2.65;1.70;;;13.30;99.90;;;;;;4972756;28;20035;-57
2021/12/30 09:29:00;;;;;;;6.40;3.78;;;13.30;99.90;;;;;;4964802;28;20027;-55
2021/12/30 09:31:28;;;;;;;9.93;4.93;;;13.30;99.90;;;;;;4971825;28;20030;-58
2021/12/30 09:33:54;;;;;;;5.43;1.95;;;13.30;99.90;;;;;;4970136;28;20146;-57
2021/12/30 09:36:20;;;;;;;6.45;1.90;;;13.30;99.90;;;;;;4971717;28;20019;-56
2021/12/30 09:38:45;;;;;;;7.47;1.50;;;13.30;99.90;;;;;;4970943;28;20031;-56
2021/12/30 09:41:11;;;;;;;6.13;2.00;;;13.40;99.90;;;;;;4984992;28;20030;-57
2021/12/30 09:43:36;;;;;;;2.80;1.85;;;13.40;99.90;;;;;;4972601;28;20034;-56
2021/12/30 09:46:02;;;;;;;3.88;2.78;;;13.40;99.90;;;;;;4972489;28;20496;-58
2021/12/30 09:48:28;;;;;;;4.38;2.22;;;13.40;99.90;;;;;;4969348;28;20034;-57
2021/12/30 09:50:55;;;;;;;3.50;2.00;;;13.40;99.90;;;;;;4971690;28;20031;-57
2021/12/30 09:53:23;;;;;;;8.98;3.58;;;13.40;99.90;;;;;;4972294;28;20508;-59
2021/12/30 09:55:50;;;;;;;11.93;7.38;;;13.40;99.90;;;;;;4969333;28;20034;-57
2021/12/30 09:58:16;;;;;;;5.03;3.22;;;13.40;99.90;;;;;;4970887;28;20026;-57
2021/12/30 10:00:42;;;;;;;4.45;1.85;;;13.40;99.90;;;;;;4954570;28;20041;-57
2021/12/30 10:03:08;;;;;;;3.33;2.30;;;13.50;99.90;;;;;;4970845;28;20578;-57
2021/12/30 10:05:37;;;;;;;4.53;2.45;;;13.50;99.90;;;;;;4970923;28;20031;-57
2021/12/30 10:08:21;;;;;;;5.28;3.17;;;13.60;99.90;;;;;;4972416;28;20042;-54
2021/12/30 10:10:48;;;;;;;;;;;13.60;99.90;;;;;;4968916;28;20030;-57
2021/12/30 10:13:27;;;;;;;4.38;3.05;;;13.70;99.90;;;;;;4970879;28;20395;-54
2021/12/30 10:16:16;;;;;;;2.85;2.00;;;13.70;99.90;;;;;;4967747;28;20058;-55
2021/12/30 10:18:53;;;;;;;3.05;1.08;;;13.70;99.90;;;;;;4970674;28;20034;-57
2021/12/30 10:21:25;;;;;;;2.33;1.80;;;13.70;99.90;;;;;;4972286;28;20027;-54
2021/12/30 10:23:59;;;;;;;5.28;2.60;;;13.70;99.90;;;;;;4955477;28;20038;-54
2021/12/30 10:26:26;;;;;;;4.25;2.92;;;13.60;99.90;;;;;;4970795;28;20109;-57
2021/12/30 10:28:55;;;;;;;6.13;2.25;;;13.60;99.90;;;;;;4970758;28;20034;-52
2021/12/30 10:31:24;;;;;;;1.95;1.60;;;13.60;99.90;;;;;;4966413;28;20405;-54
2021/12/30 10:33:59;;;;;;;3.88;2.17;;;13.70;99.90;;;;;;4969060;28;20113;-56
2021/12/30 10:36:31;;;;;;;6.25;3.15;;;13.70;99.90;;;;;;4970708;28;20027;-58
2021/12/30 10:39:22;;;;;;;6.50;3.85;;;13.70;99.90;;;;;;4965210;28;20034;-57
2021/12/30 10:41:51;;;;;;;13.50;8.30;;;13.70;99.90;;;;;;4964955;28;20424;-57
2021/12/30 10:44:18;;;;;;;14.48;7.63;;;13.70;99.90;;;;;;4969097;28;20026;-58
2021/12/30 10:46:46;;;;;;;10.88;5.80;;;13.70;99.90;;;;;;4972128;28;20127;-57
2021/12/30 10:49:21;;;;;;;27.77;13.82;;;13.70;99.90;;;;;;4963453;28;20039;-57
2021/12/30 10:51:49;;;;;;;13.55;5.57;;;13.70;99.90;;;;;;4967404;28;20026;-54
2021/12/30 10:54:19;;;;;;;98.43;50.63;;;13.70;99.90;;;;;;4967683;28;20085;-53
2021/12/30 10:57:06;;;;;;;11.15;6.13;;;13.70;99.90;;;;;;4966384;28;20079;-56
2021/12/30 10:59:42;;;;;;;3.15;2.08;;;13.70;99.90;;;;;;4971248;28;20030;-56
2021/12/30 11:02:17;;;;;;;4.90;2.97;;;13.70;99.90;;;;;;4955689;28;20468;-58
2021/12/30 11:04:57;;;;;;;10.80;3.85;;;13.80;99.90;;;;;;4968764;28;20089;-54
2021/12/30 11:07:27;;;;;;;2.83;0.75;;;13.70;99.90;;;;;;4971282;28;20066;-58
2021/12/30 11:09:58;;;;;;;4.05;1.92;;;13.80;99.90;;;;;;4969187;28;20034;-57
2021/12/30 11:12:31;;;;;;;3.88;1.80;;;13.80;99.90;;;;;;4969755;28;20031;-57
2021/12/30 11:15:00;;;;;;;3.92;2.00;;;13.80;99.90;;;;;;4969875;28;20018;-57
2021/12/30 11:17:33;;;;;;;1.75;1.00;;;13.80;99.90;;;;;;4951040;28;20062;-57
2021/12/30 11:20:05;;;;;;;2.63;1.20;;;13.90;99.90;;;;;;4954816;28;20472;-56
2021/12/30 11:22:32;;;;;;;5.47;1.98;;;13.90;99.90;;;;;;4951795;28;20047;-54
2021/12/30 11:25:00;;;;;;;8.68;3.60;;;13.90;99.90;;;;;;4952834;28;20031;-56
2021/12/30 11:27:28;;;;;;;2.42;1.30;;;14.00;99.90;;;;;;4953283;28;20031;-57
2021/12/30 11:29:59;;;;;;;5.30;3.15;;;13.90;99.90;;;;;;4949819;28;20034;-56
2021/12/30 11:32:27;;;;;;;3.97;2.55;;;14.00;99.90;;;;;;4959564;28;20039;-57
2021/12/30 11:34:53;;;;;;;4.68;1.80;;;14.00;99.90;;;;;;4947042;28;20094;-55
2021/12/30 11:37:20;;;;;;;7.63;5.13;;;14.10;99.90;;;;;;4956048;28;20150;-57
2021/12/30 11:39:53;;;;;;;11.38;7.65;;;14.10;99.90;;;;;;4950695;28;20027;-55
2021/12/30 11:42:29;;;;;;;18.03;12.13;;;14.20;99.90;;;;;;4952879;28;20534;-57
2021/12/30 11:44:58;;;;;;;16.58;8.98;;;14.20;99.90;;;;;;4950848;28;20293;-58
2021/12/30 11:47:36;;;;;;;11.98;7.88;;;14.30;99.90;;;;;;4952473;28;20098;-57
2021/12/30 11:50:09;;;;;;;12.93;8.45;;;14.30;99.90;;;;;;4952268;29;20449;-55
2021/12/30 11:53:09;;;;;;;8.95;6.07;;;14.30;99.90;;;;;;4951395;29;20050;-57
2021/12/30 11:56:10;;;;;;;30.08;16.58;;;14.30;99.90;;;;;;4955375;28;20465;-57
2021/12/30 11:58:40;;;;;;;24.52;12.30;;;14.30;99.90;;;;;;4950802;28;20074;-57
2021/12/30 12:01:12;;;;;;;1.60;0.90;;;14.20;99.90;;;;;;4954369;28;20146;-57
2021/12/30 12:03:47;;;;;;;15.65;9.73;;;14.20;99.90;;;;;;4962200;28;20453;-59
2021/12/30 12:06:45;;;;;;;15.23;7.47;;;14.30;99.90;;;;;;4956128;28;20039;-56
2021/12/30 12:09:33;;;;;;;3.00;1.48;;;14.30;99.90;;;;;;4946519;29;20035;-56
2021/12/30 12:12:00;;;;;;;4.15;1.60;;;14.30;99.90;;;;;;4952431;28;20081;-58
2021/12/30 12:14:27;;;;;;;4.22;2.40;;;14.30;99.90;;;;;;4950913;29;20027;-57
2021/12/30 12:16:59;;;;;;;5.13;1.73;;;14.30;99.90;;;;;;4953543;28;20584;-57
2021/12/30 12:19:38;;;;;;;6.05;1.95;;;14.20;99.90;;;;;;4952538;28;20034;-57
2021/12/30 12:22:07;;;;;;;3.28;1.80;;;14.30;99.90;;;;;;4943882;28;20115;-56
2021/12/30 12:24:37;;;;;;;15.85;6.97;;;14.30;99.90;;;;;;4946744;29;20671;-56
2021/12/30 12:27:06;;;;;;;9.70;2.85;;;14.20;99.90;;;;;;4951546;29;20052;-57
2021/12/30 12:29:55;;;;;;;11.20;6.25;;;14.30;99.90;;;;;;4950553;29;20035;-58
2021/12/30 12:32:29;;;;;;;5.78;2.53;;;14.20;99.90;;;;;;4951907;29;20093;-54
2021/12/30 12:34:58;;;;;;;10.80;5.05;;;14.30;99.90;;;;;;4951104;29;20087;-57
2021/12/30 12:37:29;;;;;;;4.22;1.33;;;14.30;99.90;;;;;;4950698;29;20098;-58
2021/12/30 12:40:38;;;;;;;4.65;1.80;;;14.30;99.90;;;;;;4951225;28;20082;-54
2021/12/30 12:43:14;;;;;;;6.95;2.53;;;14.30;99.90;;;;;;4949335;29;20679;-58
2021/12/30 12:45:52;;;;;;;5.53;3.42;;;14.30;99.90;;;;;;4951385;29;20023;-57
2021/12/30 12:48:17;;;;;;;5.45;2.38;;;14.30;99.90;;;;;;4951158;29;20031;-58